createdAt,value
2022-09-15T00:02:28.358Z,11.70
2022-09-15T00:06:30.079Z,11.70
2022-09-15T00:10:31.714Z,11.60
2022-09-15T00:14:33.360Z,11.50
2022-09-15T00:18:36.254Z,11.50
2022-09-15T00:22:38.078Z,11.40
2022-09-15T00:26:39.821Z,11.30
2022-09-15T00:30:47.298Z,11.30
2022-09-15T00:34:50.767Z,11.20
2022-09-15T00:38:53.051Z,11.20
2022-09-15T00:42:54.635Z,11.10
2022-09-15T00:47:17.694Z,11.00
2022-09-15T00:51:24.776Z,10.90
2022-09-15T00:55:33.713Z,10.90
2022-09-15T00:59:39.002Z,10.80
2022-09-15T01:03:40.962Z,10.70
2022-09-15T01:08:06.849Z,10.70
2022-09-15T01:12:08.579Z,10.80
2022-09-15T01:16:35.402Z,10.70
2022-09-15T01:20:46.188Z,10.60
2022-09-15T01:25:06.343Z,10.50
2022-09-15T01:29:26.747Z,10.40
2022-09-15T01:33:37.212Z,10.40
2022-09-15T01:37:44.754Z,10.30
2022-09-15T01:41:50.684Z,10.30
2022-09-15T01:45:53.300Z,10.20
2022-09-15T01:50:15.271Z,10.20
2022-09-15T01:54:19.768Z,10.20
2022-09-15T01:58:21.640Z,10.10
2022-09-15T02:02:30.928Z,10.10
2022-09-15T02:06:39.251Z,10.10
2022-09-15T02:10:46.021Z,10.00
2022-09-15T02:15:05.404Z,10.10
2022-09-15T02:19:31.534Z,10.10
2022-09-15T02:23:39.510Z,10.00
2022-09-15T02:27:46.013Z,10.00
2022-09-15T02:31:50.593Z,10.00
2022-09-15T02:35:52.793Z,10.00
2022-09-15T02:39:59.623Z,10.10
2022-09-15T02:44:01.624Z,10.10
2022-09-15T02:48:04.151Z,10.10
2022-09-15T02:52:06.123Z,10.10
2022-09-15T02:56:07.740Z,10.00
2022-09-15T03:00:13.305Z,10.00
2022-09-15T03:04:14.955Z,10.00
2022-09-15T03:08:16.570Z,10.00
2022-09-15T03:12:18.185Z,10.00
2022-09-15T03:16:20.309Z,10.00
2022-09-15T03:20:25.811Z,10.00
2022-09-15T03:24:27.443Z,10.00
2022-09-15T03:28:29.499Z,10.10
2022-09-15T03:32:31.271Z,10.10
2022-09-15T03:36:33.408Z,10.10
2022-09-15T03:40:37.173Z,10.10
2022-09-15T03:44:38.762Z,10.20
2022-09-15T03:48:40.551Z,10.30
2022-09-15T03:52:42.157Z,10.40
2022-09-15T03:56:47.172Z,10.50
2022-09-15T04:00:48.877Z,10.50
2022-09-15T04:04:50.531Z,10.60
2022-09-15T04:08:52.809Z,10.60
2022-09-15T04:12:54.539Z,10.70
2022-09-15T04:16:56.195Z,10.80
2022-09-15T04:21:02.009Z,10.90
2022-09-15T04:25:04.005Z,10.90
2022-09-15T04:29:13.253Z,11.00
2022-09-15T04:33:14.932Z,11.00
2022-09-15T04:37:16.654Z,11.10
2022-09-15T04:41:19.315Z,11.20
2022-09-15T04:45:21.411Z,11.30
2022-09-15T04:49:23.131Z,11.40
2022-09-15T04:53:25.062Z,11.40
2022-09-15T04:57:26.676Z,11.40
2022-09-15T05:01:31.632Z,11.40
2022-09-15T05:05:34.396Z,11.40
2022-09-15T05:09:36.088Z,11.50
2022-09-15T05:13:39.049Z,11.50
2022-09-15T05:17:40.714Z,11.40
2022-09-15T05:21:56.915Z,11.50
2022-09-15T05:26:00.243Z,11.50
2022-09-15T05:30:31.729Z,11.50
2022-09-15T05:34:23.758Z,11.50
2022-09-15T05:38:27.977Z,11.60
2022-09-15T05:42:31.796Z,11.70
2022-09-15T05:46:33.496Z,11.70
2022-09-15T05:50:35.536Z,11.80
2022-09-15T05:54:38.114Z,11.90
2022-09-15T05:58:41.450Z,11.90
2022-09-15T06:02:43.298Z,12.00
2022-09-15T06:06:45.023Z,12.10
2022-09-15T06:10:47.335Z,12.20
2022-09-15T06:14:50.844Z,12.30
2022-09-15T06:18:53.639Z,12.40
2022-09-15T06:22:57.166Z,12.40
2022-09-15T06:26:58.810Z,12.40
2022-09-15T06:31:00.509Z,12.50
2022-09-15T06:35:06.963Z,12.60
2022-09-15T06:39:08.679Z,12.70
2022-09-15T06:43:10.271Z,12.90
2022-09-15T06:47:15.214Z,12.90
2022-09-15T06:51:18.886Z,13.10
2022-09-15T06:55:20.619Z,13.10
2022-09-15T06:59:24.482Z,13.20
2022-09-15T07:03:26.305Z,13.40
2022-09-15T07:07:28.028Z,13.60
2022-09-15T07:11:30.523Z,13.70
2022-09-15T07:15:32.119Z,13.80
2022-09-15T07:19:33.707Z,13.80
2022-09-15T07:23:35.823Z,13.80
2022-09-15T07:27:37.511Z,13.80
2022-09-15T07:31:39.377Z,13.90
2022-09-15T07:35:42.743Z,14.00
2022-09-15T07:39:44.481Z,14.10
2022-09-15T07:44:00.365Z,14.20
2022-09-15T07:48:02.463Z,14.50
2022-09-15T07:52:04.084Z,14.60
2022-09-15T07:56:06.158Z,14.80
2022-09-15T08:00:08.258Z,14.90
2022-09-15T08:04:09.904Z,15.00
2022-09-15T08:08:11.513Z,15.00
2022-09-15T08:12:13.138Z,15.10
2022-09-15T08:16:18.203Z,15.10
2022-09-15T08:20:21.259Z,15.20
2022-09-15T08:24:23.596Z,15.20
2022-09-15T08:28:26.142Z,15.20
2022-09-15T08:32:27.759Z,15.30
2022-09-15T08:36:30.039Z,15.40
2022-09-15T08:40:38.055Z,15.40
2022-09-15T08:44:57.459Z,15.40
2022-09-15T08:49:06.737Z,15.60
2022-09-15T08:53:25.691Z,15.80
2022-09-15T08:57:27.616Z,15.90
2022-09-15T09:01:56.817Z,15.90
2022-09-15T09:06:05.147Z,16.10
2022-09-15T09:10:25.358Z,16.30
2022-09-15T09:14:54.581Z,16.50
2022-09-15T09:19:03.642Z,16.60
2022-09-15T09:23:12.671Z,16.70
2022-09-15T09:27:18.210Z,16.70
2022-09-15T09:31:22.334Z,16.90
2022-09-15T09:35:42.245Z,16.90
2022-09-15T09:39:43.930Z,16.90
2022-09-15T09:43:48.755Z,16.90
2022-09-15T09:47:50.402Z,17.00
2022-09-15T09:51:57.144Z,17.00
2022-09-15T09:56:22.316Z,17.10
2022-09-15T10:00:33.205Z,17.30
2022-09-15T10:04:34.824Z,17.20
2022-09-15T10:08:36.841Z,17.10
2022-09-15T10:12:41.832Z,17.10
2022-09-15T10:16:43.679Z,16.90
2022-09-15T10:20:51.027Z,16.70
2022-09-15T10:24:53.258Z,16.70
2022-09-15T10:29:11.102Z,16.90
2022-09-15T10:33:23.489Z,16.80
2022-09-15T10:37:36.220Z,17.00
2022-09-15T10:41:48.794Z,17.00
2022-09-15T10:46:13.817Z,17.20
2022-09-15T10:50:29.276Z,17.40
2022-09-15T10:55:12.700Z,17.60
2022-09-15T10:59:20.043Z,17.70
2022-09-15T11:04:03.097Z,17.80
2022-09-15T11:08:33.756Z,17.80
2022-09-15T11:12:38.150Z,17.70
2022-09-15T11:17:06.166Z,17.40
2022-09-15T11:21:33.788Z,17.20
2022-09-15T11:25:43.696Z,16.90
2022-09-15T11:30:01.255Z,16.80
2022-09-15T11:34:02.833Z,16.60
2022-09-15T11:38:38.371Z,16.50
2022-09-15T11:42:52.357Z,16.40
2022-09-15T11:47:07.386Z,16.30
2022-09-15T11:51:12.206Z,16.20
2022-09-15T11:55:17.191Z,16.10
2022-09-15T11:59:28.621Z,16.00
2022-09-15T12:03:40.136Z,15.90
2022-09-15T12:08:06.768Z,16.00
2022-09-15T12:12:18.684Z,16.00
2022-09-15T12:16:21.257Z,15.90
2022-09-15T12:20:39.332Z,15.90
2022-09-15T12:24:58.875Z,15.80
2022-09-15T12:29:21.149Z,15.70
2022-09-15T12:33:59.903Z,15.80
2022-09-15T12:38:01.586Z,15.70
2022-09-15T12:42:26.651Z,15.70
2022-09-15T12:46:28.841Z,15.60
2022-09-15T12:50:35.371Z,15.70
2022-09-15T12:54:39.835Z,15.70
2022-09-15T12:58:46.755Z,15.70
2022-09-15T13:02:51.868Z,15.80
2022-09-15T13:07:15.371Z,15.70
2022-09-15T13:11:40.999Z,15.70
2022-09-15T13:15:46.415Z,15.80
2022-09-15T13:19:51.378Z,15.90
2022-09-15T13:23:54.179Z,16.00
2022-09-15T13:28:00.538Z,16.10
2022-09-15T13:32:44.287Z,16.30
2022-09-15T13:41:45.906Z,16.40
2022-09-15T13:46:02.348Z,16.50
2022-09-15T13:50:48.627Z,16.60
2022-09-15T13:55:14.276Z,16.70
2022-09-15T13:59:34.873Z,16.60
2022-09-15T14:03:41.560Z,16.50
2022-09-15T14:07:44.489Z,16.40
2022-09-15T14:11:52.543Z,16.30
2022-09-15T14:16:20.261Z,16.10
2022-09-15T14:20:23.487Z,16.10
2022-09-15T14:24:30.720Z,16.10
2022-09-15T14:28:32.589Z,16.20
2022-09-15T14:32:38.855Z,16.40
2022-09-15T14:36:41.097Z,16.50
2022-09-15T14:40:42.753Z,16.50
2022-09-15T14:49:14.242Z,16.60
2022-09-15T14:53:20.515Z,16.60
2022-09-15T14:57:26.537Z,16.70
2022-09-15T15:01:39.856Z,16.70
2022-09-15T15:05:58.001Z,16.70
2022-09-15T15:10:18.501Z,16.80
2022-09-15T15:14:20.615Z,16.80
2022-09-15T15:18:38.893Z,16.80
2022-09-15T15:22:42.623Z,16.90
2022-09-15T15:26:47.047Z,16.90
2022-09-15T15:30:48.692Z,16.80
2022-09-15T15:34:53.057Z,16.80
2022-09-15T15:38:57.360Z,16.90
2022-09-15T15:43:12.746Z,16.90
2022-09-15T15:47:14.322Z,16.90
2022-09-15T15:51:15.971Z,16.90
2022-09-15T15:55:23.034Z,16.80
2022-09-15T15:59:24.803Z,16.90
2022-09-15T16:03:27.460Z,16.90
2022-09-15T16:07:33.422Z,16.90
2022-09-15T16:11:35.369Z,16.80
2022-09-15T16:15:36.997Z,16.60
2022-09-15T16:19:38.621Z,16.40
2022-09-15T16:23:40.373Z,16.30
2022-09-15T16:27:42.106Z,16.20
2022-09-15T16:31:43.868Z,16.10
2022-09-15T16:35:51.098Z,15.90
2022-09-15T16:39:54.175Z,15.80
2022-09-15T16:43:56.137Z,15.80
2022-09-15T16:47:58.635Z,15.70
2022-09-15T16:52:00.388Z,15.70
2022-09-15T16:56:02.431Z,15.70
2022-09-15T17:00:04.532Z,15.70
2022-09-15T17:04:16.680Z,15.60
2022-09-15T17:08:20.635Z,15.70
2022-09-15T17:12:23.171Z,15.60
2022-09-15T17:16:24.969Z,15.50
2022-09-15T17:20:27.327Z,15.50
2022-09-15T17:24:29.484Z,15.50
2022-09-15T17:28:33.415Z,15.50
2022-09-15T17:32:35.722Z,15.40
2022-09-15T17:36:37.383Z,15.40
2022-09-15T17:40:39.259Z,15.40
2022-09-15T17:44:40.875Z,15.30
2022-09-15T17:48:42.527Z,15.20
2022-09-15T17:52:45.164Z,15.30
2022-09-15T17:56:47.027Z,15.20
2022-09-15T18:00:49.834Z,15.20
2022-09-15T18:04:51.683Z,15.30
2022-09-15T18:08:53.347Z,15.20
2022-09-15T18:12:55.864Z,15.10
2022-09-15T18:16:57.573Z,15.10
2022-09-15T18:20:59.397Z,15.20
2022-09-15T18:25:01.026Z,15.10
2022-09-15T18:29:03.442Z,15.10
2022-09-15T18:33:05.142Z,15.20
2022-09-15T18:37:06.775Z,15.10
2022-09-15T18:41:10.655Z,15.20
2022-09-15T18:45:15.237Z,15.10
2022-09-15T18:49:16.847Z,15.20
2022-09-15T18:53:18.610Z,15.10
2022-09-15T18:57:20.294Z,15.00
2022-09-15T19:01:22.610Z,14.90
2022-09-15T19:05:25.047Z,14.90
2022-09-15T19:09:26.640Z,14.90
2022-09-15T19:13:28.847Z,14.90
2022-09-15T19:17:30.902Z,14.90
2022-09-15T19:21:32.561Z,14.80
2022-09-15T19:25:34.971Z,14.80
2022-09-15T19:29:37.384Z,14.80
2022-09-15T19:33:39.861Z,14.60
2022-09-15T19:37:42.380Z,14.60
2022-09-15T19:41:44.230Z,14.70
2022-09-15T19:45:46.187Z,14.70
2022-09-15T19:49:47.842Z,14.60
2022-09-15T19:53:52.791Z,14.50
2022-09-15T19:57:54.458Z,14.50
2022-09-15T20:01:56.177Z,14.40
2022-09-15T20:05:58.078Z,14.30
2022-09-15T20:09:59.687Z,14.20
2022-09-15T20:14:02.104Z,14.20
2022-09-15T20:18:04.371Z,14.00
2022-09-15T20:22:06.027Z,13.90
2022-09-15T20:26:09.063Z,14.00
2022-09-15T20:30:11.096Z,13.90
2022-09-15T20:34:12.860Z,13.90
2022-09-15T20:38:14.737Z,13.80
2022-09-15T20:42:16.462Z,13.80
2022-09-15T20:46:21.285Z,13.80
2022-09-15T20:50:22.907Z,13.80
2022-09-15T20:54:24.543Z,13.60
2022-09-15T20:58:26.229Z,13.60
2022-09-15T21:02:27.882Z,13.60
2022-09-15T21:06:29.692Z,13.50
2022-09-15T21:10:31.764Z,13.50
2022-09-15T21:14:33.396Z,13.50
2022-09-15T21:18:38.120Z,13.50
2022-09-15T21:22:39.695Z,13.50
2022-09-15T21:27:01.045Z,13.50
2022-09-15T21:31:12.973Z,13.60
2022-09-15T21:35:15.118Z,13.40
2022-09-15T21:39:16.702Z,13.50
2022-09-15T21:43:18.564Z,13.40
2022-09-15T21:47:20.181Z,13.50
2022-09-15T21:51:24.988Z,13.50
2022-09-15T21:55:26.882Z,13.40
2022-09-15T21:59:28.527Z,13.50
2022-09-15T22:03:30.136Z,13.50
2022-09-15T22:07:31.920Z,13.50
2022-09-15T22:11:34.380Z,13.40
2022-09-15T22:15:36.077Z,13.50
2022-09-15T22:19:37.746Z,13.40
2022-09-15T22:23:40.026Z,13.40
2022-09-15T22:27:42.361Z,13.40
2022-09-15T22:31:44.019Z,13.40
2022-09-15T22:35:47.601Z,13.30
2022-09-15T22:39:58.806Z,13.10
2022-09-15T22:44:01.289Z,13.20
2022-09-15T22:48:02.920Z,13.30
2022-09-15T22:52:04.917Z,13.20
2022-09-15T22:56:21.417Z,13.30
2022-09-15T23:00:23.326Z,13.20
2022-09-15T23:04:25.156Z,13.20
2022-09-15T23:08:26.811Z,13.20
2022-09-15T23:12:32.461Z,13.30
2022-09-15T23:16:34.146Z,13.10
2022-09-15T23:20:36.338Z,13.10
2022-09-15T23:24:37.927Z,13.10
2022-09-15T23:28:40.219Z,13.20
2022-09-15T23:32:42.202Z,13.20
2022-09-15T23:36:43.906Z,13.20
2022-09-15T23:40:46.961Z,13.20
2022-09-15T23:44:48.560Z,13.20
2022-09-15T23:48:50.132Z,13.10
2022-09-15T23:52:51.811Z,13.10
2022-09-15T23:56:53.420Z,13.10
